createdAt,value
2024-01-03T00:00:00.927Z,993.24
2024-01-03T00:10:01.821Z,993.18
2024-01-03T00:20:01.309Z,993.06
2024-01-03T00:30:01.261Z,993.02
2024-01-03T00:40:01.494Z,993.03
2024-01-03T01:00:02.141Z,993.04
2024-01-03T01:10:02.093Z,992.93
2024-01-03T01:20:02.362Z,993.14
2024-01-03T01:30:02.564Z,993.07
2024-01-03T01:40:01.545Z,993.12
2024-01-03T01:50:02.398Z,993.25
2024-01-03T02:00:01.480Z,993.25
2024-01-03T02:10:00.463Z,993.17
2024-01-03T02:20:02.125Z,993.24
2024-01-03T02:30:01.252Z,993.22
2024-01-03T02:40:02.592Z,993.20
2024-01-03T02:50:01.827Z,993.35
2024-01-03T03:00:02.032Z,993.38
2024-01-03T03:10:01.361Z,993.40
2024-01-03T03:20:01.123Z,993.30
2024-01-03T03:30:01.141Z,993.39
2024-01-03T03:40:01.606Z,993.54
2024-01-03T03:50:01.385Z,993.44
2024-01-03T04:00:01.724Z,993.32
2024-01-03T04:10:01.113Z,993.43
2024-01-03T04:20:01.414Z,993.43
2024-01-03T04:30:01.186Z,993.49
2024-01-03T04:40:01.524Z,993.57
2024-01-03T04:50:01.213Z,993.71
2024-01-03T05:00:01.430Z,993.69
2024-01-03T05:10:01.043Z,993.84
2024-01-03T05:20:01.350Z,993.77
2024-01-03T05:30:00.508Z,993.84
2024-01-03T05:40:01.901Z,993.90
2024-01-03T05:50:02.817Z,993.95
2024-01-03T06:00:00.498Z,993.97
2024-01-03T06:10:01.543Z,994.03
2024-01-03T06:20:00.615Z,994.18
2024-01-03T06:30:01.521Z,994.38
2024-01-03T06:40:01.374Z,994.52
2024-01-03T06:50:00.579Z,994.74
2024-01-03T07:00:00.573Z,994.85
2024-01-03T07:10:01.118Z,994.89
2024-01-03T07:20:01.118Z,994.90
2024-01-03T07:30:00.552Z,994.92
2024-01-03T07:40:02.058Z,994.92
2024-01-03T07:50:02.161Z,994.92
2024-01-03T08:00:02.401Z,995.03
2024-01-03T08:10:01.324Z,995.20
2024-01-03T08:20:01.472Z,995.08
2024-01-03T08:30:01.099Z,995.12
2024-01-03T08:40:01.300Z,995.20
2024-01-03T08:50:01.360Z,995.15
2024-01-03T09:00:00.509Z,995.16
2024-01-03T09:10:01.327Z,995.22
2024-01-03T09:20:01.124Z,995.16
2024-01-03T09:30:01.632Z,995.26
2024-01-03T09:40:01.057Z,995.23
2024-01-03T09:50:01.061Z,995.26
2024-01-03T10:00:00.501Z,995.43
2024-01-03T10:10:01.076Z,995.33
2024-01-03T10:20:01.178Z,995.26
2024-01-03T10:30:01.098Z,995.33
2024-01-03T10:40:01.012Z,995.41
2024-01-03T10:50:00.999Z,995.24
2024-01-03T11:00:02.149Z,995.31
2024-01-03T11:10:01.076Z,995.23
2024-01-03T11:20:01.005Z,995.12
2024-01-03T11:30:02.006Z,995.06
2024-01-03T11:40:02.986Z,995.10
2024-01-03T11:50:01.517Z,995.05
2024-01-03T12:00:00.620Z,995.23
2024-01-03T12:10:01.329Z,995.00
2024-01-03T12:20:01.554Z,994.96
2024-01-03T12:30:01.277Z,994.93
2024-01-03T12:40:01.478Z,994.89
2024-01-03T12:50:01.131Z,994.79
2024-01-03T13:00:00.608Z,994.63
2024-01-03T13:10:01.988Z,994.58
2024-01-03T13:20:01.004Z,994.48
2024-01-03T13:30:03.164Z,994.47
2024-01-03T13:40:00.598Z,994.51
2024-01-03T13:50:01.042Z,994.81
2024-01-03T14:00:01.240Z,994.59
2024-01-03T14:10:01.024Z,994.95
2024-01-03T14:20:00.410Z,994.88
2024-01-03T14:30:02.000Z,995.23
2024-01-03T14:40:01.132Z,995.43
2024-01-03T14:50:01.198Z,995.25
2024-01-03T15:00:01.398Z,995.52
2024-01-03T15:10:01.206Z,995.60
2024-01-03T15:20:01.976Z,995.63
2024-01-03T15:30:01.369Z,995.59
2024-01-03T15:40:02.293Z,995.59
2024-01-03T16:00:01.137Z,995.54
2024-01-03T16:10:01.623Z,995.53
2024-01-03T16:20:01.267Z,995.51
2024-01-03T16:30:01.248Z,995.45
2024-01-03T16:40:02.662Z,995.38
2024-01-03T16:50:01.361Z,995.37
2024-01-03T17:00:01.425Z,995.32
2024-01-03T17:10:01.466Z,995.34
2024-01-03T17:20:01.171Z,995.36
2024-01-03T17:30:01.507Z,995.29
2024-01-03T17:40:01.384Z,995.40
2024-01-03T17:50:00.491Z,995.42
2024-01-03T18:00:02.234Z,995.29
2024-01-03T18:10:02.079Z,995.21
2024-01-03T18:20:01.197Z,995.29
2024-01-03T18:30:02.159Z,995.25
2024-01-03T18:40:00.438Z,995.18
2024-01-03T18:50:02.131Z,995.06
2024-01-03T19:00:01.098Z,995.05
2024-01-03T19:10:02.787Z,994.95
2024-01-03T19:20:01.238Z,994.85
2024-01-03T19:30:02.420Z,994.98
2024-01-03T19:40:01.350Z,994.92
2024-01-03T19:50:01.709Z,994.87
2024-01-03T20:00:00.551Z,994.75
2024-01-03T20:10:01.513Z,994.86
2024-01-03T20:20:02.463Z,995.01
2024-01-03T20:30:00.480Z,995.02
2024-01-03T20:40:02.183Z,995.03
2024-01-03T20:50:01.976Z,995.09
2024-01-03T21:00:01.987Z,994.96
2024-01-03T21:10:01.527Z,994.96
2024-01-03T21:20:01.083Z,995.02
2024-01-03T21:30:01.248Z,995.06
2024-01-03T21:40:01.033Z,995.05
2024-01-03T21:50:01.155Z,995.06
2024-01-03T22:00:03.354Z,995.08
2024-01-03T22:10:01.344Z,995.12
2024-01-03T22:20:01.190Z,995.09
2024-01-03T22:30:00.472Z,994.97
2024-01-03T22:50:01.160Z,995.07
2024-01-03T23:00:00.566Z,995.03
2024-01-03T23:10:01.065Z,995.05
2024-01-03T23:20:01.583Z,994.98
2024-01-03T23:30:01.609Z,994.91
2024-01-03T23:40:01.070Z,994.97
2024-01-03T23:50:01.112Z,994.91
